createdAt,value
2022-12-18T00:01:35.236Z,65.97
2022-12-18T00:04:04.284Z,65.90
2022-12-18T00:06:31.512Z,69.47
2022-12-18T00:08:58.989Z,70.43
2022-12-18T00:11:27.410Z,64.37
2022-12-18T00:13:55.582Z,68.97
2022-12-18T00:16:23.350Z,72.23
2022-12-18T00:18:51.139Z,67.43
2022-12-18T00:21:18.186Z,73.10
2022-12-18T00:23:47.495Z,64.90
2022-12-18T00:26:16.418Z,71.37
2022-12-18T00:28:43.548Z,65.83
2022-12-18T00:31:14.639Z,59.17
2022-12-18T00:33:41.854Z,57.07
2022-12-18T00:36:29.849Z,68.57
2022-12-18T00:38:57.127Z,63.67
2022-12-18T00:41:43.086Z,70.07
2022-12-18T00:44:10.900Z,71.60
2022-12-18T00:46:37.641Z,61.30
2022-12-18T00:49:04.875Z,67.30
2022-12-18T00:51:31.671Z,60.13
2022-12-18T00:53:58.563Z,64.83
2022-12-18T00:56:25.746Z,55.20
2022-12-18T00:58:53.380Z,63.63
2022-12-18T01:01:20.970Z,65.33
2022-12-18T01:03:48.143Z,64.33
2022-12-18T01:06:17.054Z,58.90
2022-12-18T01:08:44.689Z,60.90
2022-12-18T01:11:15.017Z,60.50
2022-12-18T01:13:42.211Z,56.07
2022-12-18T01:16:10.285Z,61.80
2022-12-18T01:18:37.166Z,56.63
2022-12-18T01:21:11.775Z,59.83
2022-12-18T01:23:39.343Z,56.17
2022-12-18T01:26:07.603Z,56.37
2022-12-18T01:28:36.164Z,68.03
2022-12-18T01:31:17.674Z,68.33
2022-12-18T01:33:44.840Z,58.33
2022-12-18T01:36:19.744Z,57.77
2022-12-18T01:38:47.347Z,64.60
2022-12-18T01:41:15.224Z,55.43
2022-12-18T01:43:46.486Z,55.53
2022-12-18T01:46:13.496Z,60.60
2022-12-18T01:48:41.051Z,56.40
2022-12-18T01:51:08.824Z,61.27
2022-12-18T01:53:35.890Z,58.50
2022-12-18T01:56:03.075Z,60.57
2022-12-18T01:58:48.554Z,62.00
2022-12-18T02:01:15.532Z,57.97
2022-12-18T02:03:44.013Z,65.40
2022-12-18T02:06:10.998Z,57.37
2022-12-18T02:08:46.927Z,54.07
2022-12-18T02:11:27.295Z,52.27
2022-12-18T02:13:56.987Z,60.17
2022-12-18T02:16:35.907Z,61.20
2022-12-18T02:19:07.365Z,56.17
2022-12-18T02:21:36.956Z,48.73
2022-12-18T02:24:12.980Z,53.83
2022-12-18T02:26:51.342Z,57.17
2022-12-18T02:29:24.192Z,60.07
2022-12-18T02:31:56.840Z,55.43
2022-12-18T02:34:29.229Z,56.93
2022-12-18T02:36:56.709Z,52.67
2022-12-18T02:39:24.983Z,62.77
2022-12-18T02:42:08.893Z,60.57
2022-12-18T02:44:36.688Z,58.73
2022-12-18T02:47:05.382Z,54.60
2022-12-18T02:49:45.847Z,61.33
2022-12-18T02:52:35.107Z,54.40
2022-12-18T02:55:07.451Z,48.97
2022-12-18T02:57:46.632Z,52.60
2022-12-18T03:00:30.126Z,41.63
2022-12-18T03:03:15.913Z,48.77
2022-12-18T03:05:45.962Z,45.90
2022-12-18T03:08:25.382Z,55.23
2022-12-18T03:11:00.785Z,53.83
2022-12-18T03:13:43.658Z,54.57
2022-12-18T03:16:15.751Z,54.57
2022-12-18T03:18:59.968Z,54.43
2022-12-18T03:21:31.595Z,55.93
2022-12-18T03:23:59.377Z,51.97
2022-12-18T03:26:28.404Z,47.87
2022-12-18T03:29:03.340Z,54.10
2022-12-18T03:31:32.454Z,57.53
2022-12-18T03:34:05.823Z,51.23
2022-12-18T03:36:42.101Z,50.93
2022-12-18T03:39:08.955Z,53.80
2022-12-18T03:41:50.435Z,44.00
2022-12-18T03:44:37.052Z,51.10
2022-12-18T03:47:07.556Z,57.67
2022-12-18T03:49:53.326Z,57.67
2022-12-18T03:52:25.580Z,52.63
2022-12-18T03:54:55.336Z,49.73
2022-12-18T03:57:23.862Z,60.37
2022-12-18T03:59:56.476Z,53.27
2022-12-18T04:02:26.654Z,48.50
2022-12-18T04:04:57.117Z,46.87
2022-12-18T04:07:24.663Z,51.40
2022-12-18T04:09:54.376Z,46.47
2022-12-18T04:12:26.218Z,43.13
2022-12-18T04:14:53.379Z,56.43
2022-12-18T04:17:20.344Z,47.10
2022-12-18T04:19:47.818Z,46.10
2022-12-18T04:22:14.814Z,50.43
2022-12-18T04:24:46.371Z,47.37
2022-12-18T04:27:24.684Z,49.30
2022-12-18T04:29:51.928Z,49.77
2022-12-18T04:32:19.223Z,43.03
2022-12-18T04:34:47.807Z,46.30
2022-12-18T04:37:14.822Z,44.20
2022-12-18T04:39:42.921Z,47.40
2022-12-18T04:42:16.885Z,46.07
2022-12-18T04:44:43.704Z,49.97
2022-12-18T04:47:10.448Z,49.40
2022-12-18T04:49:37.349Z,41.43
2022-12-18T04:52:04.135Z,42.23
2022-12-18T04:54:33.687Z,39.00
2022-12-18T04:57:00.704Z,41.37
2022-12-18T04:59:27.684Z,38.30
2022-12-18T05:01:54.567Z,41.27
2022-12-18T05:04:21.515Z,47.70
2022-12-18T05:06:48.961Z,40.77
2022-12-18T05:09:15.793Z,46.03
2022-12-18T05:11:43.164Z,42.80
2022-12-18T05:14:10.011Z,41.23
2022-12-18T05:16:36.761Z,41.50
2022-12-18T05:19:03.679Z,48.30
2022-12-18T05:21:30.460Z,48.90
2022-12-18T05:23:57.327Z,46.57
2022-12-18T05:26:24.165Z,53.93
2022-12-18T05:28:51.034Z,51.00
2022-12-18T05:31:17.852Z,45.63
2022-12-18T05:33:44.772Z,49.10
2022-12-18T05:36:12.414Z,53.73
2022-12-18T05:38:39.948Z,50.60
2022-12-18T05:41:07.245Z,47.67
2022-12-18T05:43:35.510Z,42.67
2022-12-18T05:46:10.208Z,38.40
2022-12-18T05:48:37.053Z,47.90
2022-12-18T05:51:08.427Z,47.30
2022-12-18T05:53:35.529Z,46.83
2022-12-18T05:56:03.037Z,46.90
2022-12-18T05:58:30.227Z,43.90
2022-12-18T06:00:57.368Z,47.40
2022-12-18T06:03:26.877Z,45.87
2022-12-18T06:05:57.580Z,43.57
2022-12-18T06:08:24.461Z,41.13
2022-12-18T06:10:52.844Z,35.57
2022-12-18T06:13:20.445Z,47.17
2022-12-18T06:15:47.352Z,43.13
2022-12-18T06:18:14.172Z,48.07
2022-12-18T06:20:42.634Z,42.10
2022-12-18T06:23:10.540Z,47.87
2022-12-18T06:25:39.023Z,42.07
2022-12-18T06:28:05.856Z,40.10
2022-12-18T06:30:32.649Z,46.60
2022-12-18T06:32:59.497Z,42.27
2022-12-18T06:35:26.336Z,47.67
2022-12-18T06:37:53.153Z,44.63
2022-12-18T06:40:20.244Z,46.33
2022-12-18T06:42:47.392Z,44.30
2022-12-18T06:45:14.278Z,48.70
2022-12-18T06:47:41.065Z,42.43
2022-12-18T06:50:08.040Z,39.23
2022-12-18T06:52:34.876Z,43.63
2022-12-18T06:55:02.079Z,51.77
2022-12-18T06:57:28.983Z,49.43
2022-12-18T06:59:55.772Z,43.93
2022-12-18T07:02:22.816Z,41.53
2022-12-18T07:04:51.047Z,51.73
2022-12-18T07:07:18.251Z,51.63
2022-12-18T07:09:45.048Z,44.30
2022-12-18T07:12:11.971Z,39.03
2022-12-18T07:14:38.731Z,45.60
2022-12-18T07:17:05.645Z,65.13
2022-12-18T07:19:33.461Z,48.70
2022-12-18T07:22:00.346Z,45.93
2022-12-18T07:24:27.276Z,47.13
2022-12-18T07:26:54.083Z,47.47
2022-12-18T07:29:21.137Z,40.17
2022-12-18T07:31:47.995Z,41.30
2022-12-18T07:34:16.345Z,48.00
2022-12-18T07:36:43.484Z,50.63
2022-12-18T07:39:12.003Z,46.30
2022-12-18T07:41:43.754Z,50.67
2022-12-18T07:44:16.163Z,55.50
2022-12-18T07:46:43.123Z,50.70
2022-12-18T07:49:09.900Z,47.90
2022-12-18T07:51:36.742Z,47.73
2022-12-18T07:54:03.565Z,48.03
2022-12-18T07:56:31.474Z,51.77
2022-12-18T07:58:59.150Z,51.70
2022-12-18T08:01:31.914Z,43.63
2022-12-18T08:03:59.154Z,57.43
2022-12-18T08:06:25.960Z,48.87
2022-12-18T08:08:53.792Z,47.40
2022-12-18T08:11:20.999Z,43.23
2022-12-18T08:13:48.312Z,43.20
2022-12-18T08:16:16.337Z,52.77
2022-12-18T08:18:43.155Z,48.20
2022-12-18T08:21:11.213Z,45.30
2022-12-18T08:23:42.563Z,45.77
2022-12-18T08:26:10.730Z,53.77
2022-12-18T08:28:37.529Z,53.37
2022-12-18T08:31:05.106Z,54.93
2022-12-18T08:33:32.024Z,45.57
2022-12-18T08:36:02.524Z,43.50
2022-12-18T08:38:29.680Z,43.00
2022-12-18T08:41:06.756Z,50.07
2022-12-18T08:43:52.200Z,49.93
2022-12-18T08:46:19.885Z,51.30
2022-12-18T08:48:46.870Z,50.90
2022-12-18T08:51:13.783Z,64.63
2022-12-18T08:53:41.273Z,70.87
2022-12-18T08:56:08.720Z,76.17
2022-12-18T08:58:35.589Z,67.10
2022-12-18T09:01:03.328Z,66.93
2022-12-18T09:03:30.422Z,73.00
2022-12-18T09:05:57.521Z,66.17
2022-12-18T09:08:24.410Z,73.00
2022-12-18T09:10:52.972Z,74.27
2022-12-18T09:13:20.087Z,84.23
2022-12-18T09:15:48.408Z,73.70
2022-12-18T09:18:16.176Z,83.17
2022-12-18T09:20:43.225Z,88.53
2022-12-18T09:23:10.501Z,72.47
2022-12-18T09:25:37.451Z,72.57
2022-12-18T09:28:05.421Z,68.77
2022-12-18T09:30:34.519Z,70.13
2022-12-18T09:33:01.880Z,72.27
2022-12-18T09:35:29.087Z,64.97
2022-12-18T09:37:55.893Z,69.70
2022-12-18T09:40:26.072Z,69.27
2022-12-18T09:42:59.032Z,71.37
2022-12-18T09:45:26.541Z,77.93
2022-12-18T09:47:55.244Z,72.43
2022-12-18T09:50:22.062Z,63.10
2022-12-18T09:52:51.692Z,69.83
2022-12-18T09:55:18.436Z,63.17
2022-12-18T09:57:57.051Z,73.70
2022-12-18T10:00:26.142Z,74.17
2022-12-18T10:02:54.601Z,63.37
2022-12-18T10:05:44.825Z,62.07
2022-12-18T10:08:20.628Z,61.27
2022-12-18T10:10:50.037Z,60.47
2022-12-18T10:13:17.369Z,66.50
2022-12-18T10:15:52.899Z,53.83
2022-12-18T10:18:22.545Z,65.70
2022-12-18T10:20:51.711Z,65.30
2022-12-18T10:23:27.737Z,53.53
2022-12-18T10:25:54.575Z,50.23
2022-12-18T10:28:21.774Z,54.53
2022-12-18T10:30:48.631Z,59.50
2022-12-18T10:33:21.026Z,58.47
2022-12-18T10:35:49.238Z,60.03
2022-12-18T10:38:19.057Z,60.63
2022-12-18T10:40:50.829Z,53.27
2022-12-18T10:43:20.922Z,54.33
2022-12-18T10:45:59.197Z,51.33
2022-12-18T10:48:26.075Z,53.73
2022-12-18T10:53:40.791Z,54.33
2022-12-18T10:56:08.071Z,60.60
2022-12-18T10:58:36.231Z,56.83
2022-12-18T11:01:05.279Z,128.93
2022-12-18T11:04:02.318Z,81.27
2022-12-18T11:06:30.286Z,53.10
2022-12-18T11:09:12.238Z,39.80
2022-12-18T11:11:41.406Z,38.53
2022-12-18T11:14:17.921Z,44.40
2022-12-18T11:17:03.072Z,44.73
2022-12-18T11:19:33.777Z,47.80
2022-12-18T11:22:01.339Z,43.43
2022-12-18T11:24:30.906Z,42.87
2022-12-18T11:27:05.743Z,45.10
2022-12-18T11:29:40.633Z,44.27
2022-12-18T11:32:16.169Z,41.10
2022-12-18T11:34:45.849Z,37.00
2022-12-18T11:37:13.541Z,39.93
2022-12-18T11:39:51.375Z,45.00
2022-12-18T11:42:22.856Z,41.17
2022-12-18T11:44:51.613Z,42.27
2022-12-18T11:47:18.548Z,110.10
2022-12-18T11:49:45.337Z,56.00
2022-12-18T11:52:15.359Z,43.53
2022-12-18T11:54:42.231Z,42.77
2022-12-18T11:57:09.164Z,43.30
2022-12-18T11:59:35.963Z,45.67
2022-12-18T12:02:23.094Z,41.90
2022-12-18T12:04:59.184Z,39.40
2022-12-18T12:07:31.778Z,43.30
2022-12-18T12:10:17.219Z,40.70
2022-12-18T12:12:56.771Z,43.33
2022-12-18T12:15:31.294Z,43.37
2022-12-18T12:17:58.216Z,40.23
2022-12-18T12:20:35.846Z,40.73
2022-12-18T12:23:07.162Z,40.03
2022-12-18T12:25:52.924Z,39.97
2022-12-18T12:28:38.289Z,39.50
2022-12-18T12:31:11.201Z,41.43
2022-12-18T12:33:38.288Z,34.97
2022-12-18T12:36:16.392Z,45.00
2022-12-18T12:38:49.806Z,43.37
2022-12-18T12:41:39.325Z,42.73
2022-12-18T12:44:09.372Z,42.30
2022-12-18T12:46:39.495Z,39.20
2022-12-18T12:49:12.600Z,38.67
2022-12-18T12:51:41.581Z,37.07
2022-12-18T12:54:21.432Z,42.97
2022-12-18T12:56:55.921Z,45.50
2022-12-18T12:59:23.127Z,47.93
2022-12-18T13:02:25.650Z,43.20
2022-12-18T13:05:11.949Z,40.50
2022-12-18T13:07:41.715Z,59.07
2022-12-18T13:10:20.896Z,51.63
2022-12-18T13:12:56.995Z,48.63
2022-12-18T13:15:24.699Z,41.33
2022-12-18T13:18:04.581Z,46.43
2022-12-18T13:20:35.722Z,42.33
2022-12-18T13:23:20.411Z,44.93
2022-12-18T13:25:48.774Z,50.97
2022-12-18T13:28:16.384Z,53.13
2022-12-18T13:30:48.172Z,45.63
2022-12-18T13:33:16.468Z,49.37
2022-12-18T13:35:52.702Z,53.37
2022-12-18T13:38:40.044Z,53.13
2022-12-18T13:41:16.167Z,49.43
2022-12-18T13:43:48.532Z,55.47
2022-12-18T13:46:21.688Z,56.93
2022-12-18T13:48:59.091Z,56.07
2022-12-18T13:51:26.940Z,62.20
2022-12-18T13:53:59.641Z,57.80
2022-12-18T13:56:30.757Z,57.27
2022-12-18T13:59:17.401Z,58.63
2022-12-18T14:01:53.417Z,55.83
2022-12-18T14:04:25.352Z,61.57
2022-12-18T14:07:06.991Z,54.47
2022-12-18T14:09:40.822Z,54.50
2022-12-18T14:12:26.840Z,55.00
2022-12-18T14:14:55.254Z,63.27
2022-12-18T14:17:22.369Z,63.27
2022-12-18T14:19:51.129Z,61.30
2022-12-18T14:22:36.098Z,59.20
2022-12-18T14:25:16.247Z,60.60
2022-12-18T14:27:48.007Z,67.90
2022-12-18T14:30:31.628Z,68.20
2022-12-18T14:33:11.408Z,88.13
2022-12-18T14:35:40.599Z,88.07
2022-12-18T14:38:10.902Z,106.00
2022-12-18T14:40:37.976Z,127.40
2022-12-18T14:43:04.742Z,116.27
2022-12-18T14:45:43.234Z,115.60
2022-12-18T14:48:19.096Z,110.93
2022-12-18T14:50:58.723Z,112.70
2022-12-18T14:53:32.823Z,118.83
2022-12-18T14:55:59.779Z,150.63
2022-12-18T14:58:26.615Z,124.20
2022-12-18T15:00:55.024Z,109.47
2022-12-18T15:03:22.899Z,115.60
2022-12-18T15:05:50.081Z,120.10
2022-12-18T15:08:30.916Z,116.50
2022-12-18T15:10:57.981Z,113.83
2022-12-18T15:13:25.880Z,185.70
2022-12-18T15:15:53.913Z,136.50
2022-12-18T15:18:23.100Z,133.63
2022-12-18T15:20:57.585Z,133.83
2022-12-18T15:23:37.036Z,126.23
2022-12-18T15:26:10.012Z,144.20
2022-12-18T15:28:44.633Z,133.17
2022-12-18T15:31:14.198Z,139.53
2022-12-18T15:33:47.256Z,146.83
2022-12-18T15:36:15.398Z,142.70
2022-12-18T15:38:47.948Z,148.23
2022-12-18T15:41:18.921Z,155.53
2022-12-18T15:43:50.617Z,165.13
2022-12-18T15:46:19.622Z,157.17
2022-12-18T15:48:47.676Z,148.90
2022-12-18T15:51:17.584Z,134.70
2022-12-18T15:53:44.809Z,163.00
2022-12-18T15:56:31.267Z,150.47
2022-12-18T15:58:58.628Z,155.83
2022-12-18T16:01:27.149Z,206.20
2022-12-18T16:03:55.770Z,194.83
2022-12-18T16:06:25.355Z,209.53
2022-12-18T16:08:52.239Z,230.33
2022-12-18T16:11:19.097Z,178.87
2022-12-18T16:13:47.072Z,151.70
2022-12-18T16:16:13.899Z,217.77
2022-12-18T16:18:40.843Z,156.00
2022-12-18T16:21:09.198Z,243.37
2022-12-18T16:23:36.178Z,174.50
2022-12-18T16:26:03.830Z,160.00
2022-12-18T16:28:30.703Z,191.20
2022-12-18T16:30:57.574Z,200.77
2022-12-18T16:33:24.550Z,203.60
2022-12-18T16:35:54.429Z,180.30
2022-12-18T16:38:21.375Z,186.30
2022-12-18T16:41:06.484Z,205.87
2022-12-18T16:43:33.343Z,224.00
2022-12-18T16:46:00.592Z,201.53
2022-12-18T16:48:27.412Z,225.27
2022-12-18T16:51:01.286Z,198.07
2022-12-18T16:53:28.260Z,253.73
2022-12-18T16:55:56.360Z,207.37
2022-12-18T16:58:23.299Z,214.43
2022-12-18T17:00:50.070Z,243.43
2022-12-18T17:03:17.099Z,182.20
2022-12-18T17:05:45.663Z,266.07
2022-12-18T17:08:15.699Z,168.80
2022-12-18T17:10:42.494Z,272.07
2022-12-18T17:13:09.434Z,158.70
2022-12-18T17:15:36.735Z,201.00
2022-12-18T17:18:04.169Z,179.63
2022-12-18T17:20:31.231Z,167.20
2022-12-18T17:22:58.361Z,230.63
2022-12-18T17:25:26.691Z,163.30
2022-12-18T17:27:53.768Z,148.27
2022-12-18T17:30:20.520Z,149.90
2022-12-18T17:32:47.397Z,162.30
2022-12-18T17:35:14.202Z,145.00
2022-12-18T17:37:41.060Z,148.57
2022-12-18T17:40:08.175Z,173.77
2022-12-18T17:42:35.085Z,167.57
2022-12-18T17:45:02.178Z,154.30
2022-12-18T17:47:29.676Z,158.67
2022-12-18T17:49:56.548Z,170.00
2022-12-18T17:52:24.436Z,174.57
2022-12-18T17:54:52.906Z,155.13
2022-12-18T17:57:19.741Z,192.60
2022-12-18T17:59:46.589Z,162.37
2022-12-18T18:02:13.636Z,142.57
2022-12-18T18:04:40.845Z,202.70
2022-12-18T18:07:07.864Z,142.80
2022-12-18T18:09:34.725Z,168.37
2022-12-18T18:12:20.529Z,189.43
2022-12-18T18:14:47.483Z,158.93
2022-12-18T18:17:14.463Z,188.10
2022-12-18T18:19:43.120Z,227.87
2022-12-18T18:22:12.865Z,157.67
2022-12-18T18:24:44.706Z,153.30
2022-12-18T18:27:13.166Z,187.67
2022-12-18T18:29:48.018Z,162.30
2022-12-18T18:34:56.718Z,118.60
2022-12-18T18:37:23.683Z,172.15
2022-12-18T18:39:50.427Z,181.80
2022-12-18T18:42:17.303Z,190.27
2022-12-18T18:44:48.817Z,181.83
2022-12-18T18:47:16.176Z,205.00
2022-12-18T18:49:42.927Z,183.50
2022-12-18T18:52:09.765Z,173.17
2022-12-18T18:54:36.818Z,188.70
2022-12-18T18:57:19.842Z,178.80
2022-12-18T18:59:47.937Z,209.77
2022-12-18T19:02:16.056Z,171.20
2022-12-18T19:04:46.334Z,178.60
2022-12-18T19:07:15.018Z,173.20
2022-12-18T19:09:52.409Z,165.87
2022-12-18T19:12:48.282Z,446.17
2022-12-18T19:15:15.212Z,234.63
2022-12-18T19:17:42.416Z,205.43
2022-12-18T19:20:13.699Z,166.83
2022-12-18T19:22:40.620Z,175.70
2022-12-18T19:25:07.878Z,196.70
2022-12-18T19:27:38.763Z,151.20
2022-12-18T19:30:05.859Z,146.50
2022-12-18T19:32:33.725Z,146.97
2022-12-18T19:35:00.698Z,188.57
2022-12-18T19:37:28.614Z,146.40
2022-12-18T19:39:56.900Z,154.23
2022-12-18T19:42:29.427Z,140.37
2022-12-18T19:45:00.224Z,175.47
2022-12-18T19:47:27.159Z,517.13
2022-12-18T19:49:57.078Z,391.97
2022-12-18T19:52:23.893Z,616.60
2022-12-18T19:54:50.729Z,279.47
2022-12-18T19:57:17.776Z,274.33
2022-12-18T19:59:44.637Z,197.80
2022-12-18T20:02:14.779Z,266.40
2022-12-18T20:04:41.663Z,158.43
2022-12-18T20:07:08.668Z,199.60
2022-12-18T20:09:37.039Z,163.90
2022-12-18T20:12:04.537Z,168.23
2022-12-18T20:14:31.758Z,138.67
2022-12-18T20:16:58.613Z,155.40
2022-12-18T20:19:27.430Z,152.20
2022-12-18T20:21:54.525Z,151.80
2022-12-18T20:24:21.422Z,135.67
2022-12-18T20:26:48.753Z,138.97
2022-12-18T20:29:15.691Z,258.60
2022-12-18T20:31:42.607Z,584.97
2022-12-18T20:34:09.691Z,345.07
2022-12-18T20:36:37.754Z,222.97
2022-12-18T20:39:06.440Z,192.97
2022-12-18T20:41:38.224Z,149.10
2022-12-18T20:44:22.615Z,134.73
2022-12-18T20:46:51.887Z,158.50
2022-12-18T20:49:18.732Z,134.87
2022-12-18T20:51:45.668Z,139.63
2022-12-18T20:54:12.510Z,149.10
2022-12-18T20:56:39.407Z,156.23
2022-12-18T20:59:06.503Z,142.13
2022-12-18T21:01:33.494Z,127.43
2022-12-18T21:04:02.305Z,138.23
2022-12-18T21:06:30.470Z,107.93
2022-12-18T21:08:58.203Z,124.63
2022-12-18T21:11:46.151Z,124.33
2022-12-18T21:14:16.469Z,157.33
2022-12-18T21:16:46.887Z,652.80
2022-12-18T21:19:16.423Z,1189.27
2022-12-18T21:21:44.577Z,472.30
2022-12-18T21:24:12.002Z,248.27
2022-12-18T21:26:45.454Z,189.73
2022-12-18T21:29:14.646Z,128.53
2022-12-18T21:31:41.524Z,135.83
2022-12-18T21:34:10.443Z,141.53
2022-12-18T21:36:37.264Z,157.33
2022-12-18T21:39:04.407Z,127.53
2022-12-18T21:41:49.520Z,126.87
2022-12-18T21:44:18.552Z,123.23
2022-12-18T21:46:51.356Z,104.80
2022-12-18T21:49:22.171Z,119.93
2022-12-18T21:51:50.661Z,110.77
2022-12-18T21:54:18.412Z,104.27
2022-12-18T21:56:51.270Z,98.20
2022-12-18T21:59:22.708Z,106.33
2022-12-18T22:01:51.104Z,106.00
2022-12-18T22:04:19.011Z,102.57
2022-12-18T22:06:46.434Z,111.47
2022-12-18T22:09:16.120Z,97.87
2022-12-18T22:11:43.387Z,101.50
2022-12-18T22:14:10.615Z,94.17
2022-12-18T22:16:37.772Z,103.87
2022-12-18T22:19:05.196Z,100.83
2022-12-18T22:21:33.342Z,84.53
2022-12-18T22:24:01.819Z,91.53
2022-12-18T22:26:32.786Z,101.23
2022-12-18T22:29:25.257Z,144.13
2022-12-18T22:31:53.241Z,372.57
2022-12-18T22:34:22.947Z,378.67
2022-12-18T22:36:50.600Z,286.03
2022-12-18T22:39:19.430Z,132.50
2022-12-18T22:41:46.805Z,105.80
2022-12-18T22:44:15.042Z,132.73
2022-12-18T22:46:47.337Z,108.90
2022-12-18T22:49:20.974Z,95.47
2022-12-18T22:51:50.464Z,100.33
2022-12-18T22:54:17.873Z,105.67
2022-12-18T22:56:45.594Z,87.73
2022-12-18T22:59:17.974Z,86.60
2022-12-18T23:01:45.498Z,80.53
2022-12-18T23:04:14.341Z,90.63
2022-12-18T23:06:41.839Z,90.57
2022-12-18T23:09:13.859Z,86.07
2022-12-18T23:11:40.729Z,96.30
2022-12-18T23:14:07.574Z,87.67
2022-12-18T23:16:35.426Z,91.03
2022-12-18T23:19:03.605Z,95.97
2022-12-18T23:21:30.676Z,90.37
2022-12-18T23:23:59.053Z,96.50
2022-12-18T23:26:26.285Z,90.87
2022-12-18T23:28:53.298Z,95.03
2022-12-18T23:31:21.745Z,88.63
2022-12-18T23:33:48.877Z,90.30
2022-12-18T23:36:17.240Z,95.20
2022-12-18T23:38:47.688Z,86.40
2022-12-18T23:41:15.337Z,91.20
2022-12-18T23:43:42.208Z,88.47
2022-12-18T23:46:12.474Z,99.97
2022-12-18T23:48:39.944Z,104.13
2022-12-18T23:51:11.229Z,100.27
2022-12-18T23:53:38.380Z,149.33
2022-12-18T23:56:05.557Z,109.47
2022-12-18T23:58:32.566Z,103.27
